createdAt,value
2022-10-24T00:00:01.883Z,0.00
2022-10-24T00:01:01.860Z,0.00
2022-10-24T00:02:01.878Z,0.00
2022-10-24T00:03:01.943Z,0.00
2022-10-24T00:04:01.897Z,0.00
2022-10-24T00:05:01.854Z,0.00
2022-10-24T00:06:01.807Z,0.00
2022-10-24T00:07:01.793Z,0.00
2022-10-24T00:08:01.790Z,0.00
2022-10-24T00:09:01.779Z,0.00
2022-10-24T00:10:01.774Z,0.00
2022-10-24T00:11:01.770Z,0.00
2022-10-24T00:12:01.768Z,0.00
2022-10-24T00:13:01.734Z,0.00
2022-10-24T00:14:01.719Z,0.00
2022-10-24T00:15:01.706Z,0.00
2022-10-24T00:16:01.707Z,0.00
2022-10-24T00:17:01.704Z,0.00
2022-10-24T00:18:01.672Z,0.00
2022-10-24T00:19:01.672Z,0.00
2022-10-24T00:20:01.665Z,0.00
2022-10-24T00:21:01.657Z,0.00
2022-10-24T00:22:01.636Z,0.00
2022-10-24T00:23:01.636Z,0.00
2022-10-24T00:24:01.605Z,0.00
2022-10-24T00:25:01.602Z,0.00
2022-10-24T00:26:01.806Z,0.00
2022-10-24T00:27:01.585Z,0.00
2022-10-24T00:28:01.612Z,0.00
2022-10-24T00:30:01.544Z,0.00
2022-10-24T00:31:01.532Z,0.00
2022-10-24T00:32:01.528Z,0.00
2022-10-24T00:33:01.515Z,0.00
2022-10-24T00:34:01.512Z,0.00
2022-10-24T00:35:01.485Z,0.00
2022-10-24T00:36:01.504Z,0.00
2022-10-24T00:37:01.471Z,0.00
2022-10-24T00:38:01.457Z,0.00
2022-10-24T00:39:01.447Z,0.00
2022-10-24T00:40:01.451Z,0.00
2022-10-24T00:41:01.426Z,0.00
2022-10-24T00:42:01.412Z,0.00
2022-10-24T00:43:01.405Z,0.00
2022-10-24T00:44:01.419Z,0.00
2022-10-24T00:45:01.388Z,0.00
2022-10-24T00:46:01.388Z,0.00
2022-10-24T00:47:01.356Z,0.00
2022-10-24T00:48:01.366Z,0.00
2022-10-24T00:49:01.337Z,0.00
2022-10-24T00:50:01.333Z,0.00
2022-10-24T00:51:01.326Z,0.00
2022-10-24T00:52:01.293Z,0.00
2022-10-24T00:53:01.293Z,0.00
2022-10-24T00:54:01.292Z,0.00
2022-10-24T00:55:01.270Z,0.00
2022-10-24T00:56:01.263Z,0.00
2022-10-24T00:57:01.255Z,0.00
2022-10-24T00:58:01.244Z,0.00
2022-10-24T00:59:01.222Z,0.00
2022-10-24T01:00:01.249Z,0.00
2022-10-24T01:01:01.401Z,0.00
2022-10-24T01:02:01.271Z,0.00
2022-10-24T01:03:01.186Z,0.00
2022-10-24T01:04:01.174Z,0.00
2022-10-24T01:05:01.168Z,0.00
2022-10-24T01:06:01.142Z,0.00
2022-10-24T01:07:01.143Z,0.00
2022-10-24T01:08:01.126Z,0.00
2022-10-24T01:09:01.124Z,0.00
2022-10-24T01:10:01.148Z,0.00
2022-10-24T01:11:01.104Z,0.00
2022-10-24T01:12:01.078Z,0.00
2022-10-24T01:13:01.068Z,0.00
2022-10-24T01:14:01.071Z,0.00
2022-10-24T01:15:01.060Z,0.00
2022-10-24T01:16:01.060Z,0.00
2022-10-24T01:17:01.028Z,0.00
2022-10-24T01:18:01.017Z,0.00
2022-10-24T01:19:01.006Z,0.00
2022-10-24T01:20:01.001Z,0.00
2022-10-24T01:21:00.995Z,0.00
2022-10-24T01:22:00.966Z,0.00
2022-10-24T01:23:00.979Z,0.00
2022-10-24T01:24:00.942Z,0.00
2022-10-24T01:25:00.942Z,0.00
2022-10-24T01:26:00.931Z,0.00
2022-10-24T01:27:00.961Z,0.00
2022-10-24T01:28:00.908Z,0.00
2022-10-24T01:29:00.894Z,0.00
2022-10-24T01:30:00.882Z,0.00
2022-10-24T01:31:00.886Z,0.00
2022-10-24T01:32:00.875Z,0.00
2022-10-24T01:33:00.875Z,0.00
2022-10-24T01:34:00.842Z,0.00
2022-10-24T01:35:00.854Z,0.00
2022-10-24T01:36:00.814Z,0.00
2022-10-24T01:37:00.805Z,0.00
2022-10-24T01:38:00.794Z,0.00
2022-10-24T01:39:00.799Z,0.00
2022-10-24T01:40:00.771Z,0.00
2022-10-24T01:41:00.800Z,0.00
2022-10-24T01:42:00.755Z,0.00
2022-10-24T01:43:00.731Z,0.00
2022-10-24T01:44:00.731Z,0.00
2022-10-24T01:45:00.708Z,0.00
2022-10-24T01:46:00.730Z,0.00
2022-10-24T01:47:00.698Z,0.00
2022-10-24T01:48:00.703Z,0.00
2022-10-24T01:49:00.674Z,0.00
2022-10-24T01:50:00.657Z,0.00
2022-10-24T01:51:00.665Z,0.00
2022-10-24T01:52:00.702Z,0.00
2022-10-24T01:53:00.636Z,0.00
2022-10-24T01:54:00.614Z,0.00
2022-10-24T01:55:00.604Z,0.00
2022-10-24T01:56:00.665Z,0.00
2022-10-24T01:57:00.595Z,0.00
2022-10-24T01:58:00.574Z,0.00
2022-10-24T01:59:00.553Z,0.00
2022-10-24T02:00:00.560Z,0.00
2022-10-24T02:01:00.574Z,0.00
2022-10-24T02:02:00.532Z,0.00
2022-10-24T02:03:00.509Z,0.00
2022-10-24T02:04:00.529Z,0.00
2022-10-24T02:05:00.496Z,0.00
2022-10-24T02:06:00.494Z,0.00
2022-10-24T02:07:00.472Z,0.00
2022-10-24T02:08:00.466Z,0.00
2022-10-24T02:09:00.570Z,0.00
2022-10-24T02:10:00.456Z,0.00
2022-10-24T02:11:00.427Z,0.00
2022-10-24T02:12:00.430Z,0.00
2022-10-24T02:13:00.422Z,0.00
2022-10-24T02:14:00.386Z,0.00
2022-10-24T02:15:00.389Z,0.00
2022-10-24T02:16:00.381Z,0.00
2022-10-24T02:17:00.351Z,0.00
2022-10-24T02:18:00.357Z,0.00
2022-10-24T02:19:00.343Z,0.00
2022-10-24T02:20:00.348Z,0.00
2022-10-24T02:21:00.317Z,0.00
2022-10-24T02:22:00.307Z,0.00
2022-10-24T02:23:00.304Z,0.00
2022-10-24T02:24:00.291Z,0.00
2022-10-24T02:25:00.286Z,0.00
2022-10-24T02:26:00.265Z,0.00
2022-10-24T02:27:00.254Z,0.00
2022-10-24T02:28:00.230Z,0.00
2022-10-24T02:29:00.221Z,0.00
2022-10-24T02:30:00.224Z,0.00
2022-10-24T02:31:00.196Z,0.00
2022-10-24T02:32:00.192Z,0.00
2022-10-24T02:33:00.197Z,0.00
2022-10-24T02:34:00.216Z,0.00
2022-10-24T02:35:00.164Z,0.00
2022-10-24T02:36:00.179Z,0.00
2022-10-24T02:37:00.129Z,0.00
2022-10-24T02:38:00.119Z,0.00
2022-10-24T02:39:00.109Z,0.00
2022-10-24T02:40:00.101Z,0.00
2022-10-24T02:41:00.315Z,0.00
2022-10-24T02:42:00.094Z,0.00
2022-10-24T02:43:00.067Z,0.00
2022-10-24T02:44:00.059Z,0.00
2022-10-24T02:45:00.056Z,0.00
2022-10-24T02:46:00.037Z,0.00
2022-10-24T02:47:00.027Z,0.00
2022-10-24T02:48:00.040Z,0.00
2022-10-24T02:49:00.008Z,0.00
2022-10-24T02:49:59.998Z,0.00
2022-10-24T02:50:59.992Z,0.00
2022-10-24T02:51:59.994Z,0.00
2022-10-24T02:52:59.966Z,0.00
2022-10-24T02:53:59.949Z,0.00
2022-10-24T02:54:59.930Z,0.00
2022-10-24T02:55:59.963Z,0.00
2022-10-24T02:56:59.910Z,0.00
2022-10-24T02:57:59.896Z,0.00
2022-10-24T02:58:59.930Z,0.00
2022-10-24T02:59:59.886Z,0.00
2022-10-24T03:01:00.013Z,0.00
2022-10-24T03:01:59.967Z,0.00
2022-10-24T03:02:59.850Z,0.00
2022-10-24T03:03:59.845Z,0.00
2022-10-24T03:04:59.819Z,0.00
2022-10-24T03:05:59.817Z,0.00
2022-10-24T03:06:59.843Z,0.00
2022-10-24T03:07:59.813Z,0.00
2022-10-24T03:08:59.779Z,0.00
2022-10-24T03:09:59.777Z,0.00
2022-10-24T03:10:59.761Z,0.00
2022-10-24T03:11:59.768Z,0.00
2022-10-24T03:12:59.736Z,0.00
2022-10-24T03:13:59.718Z,0.00
2022-10-24T03:14:59.708Z,0.00
2022-10-24T03:15:59.707Z,0.00
2022-10-24T03:16:59.713Z,0.00
2022-10-24T03:17:59.692Z,0.00
2022-10-24T03:18:59.664Z,0.00
2022-10-24T03:19:59.654Z,0.00
2022-10-24T03:20:59.657Z,0.00
2022-10-24T03:21:59.636Z,0.00
2022-10-24T03:22:59.650Z,0.00
2022-10-24T03:23:59.696Z,0.00
2022-10-24T03:24:59.607Z,0.00
2022-10-24T03:25:59.622Z,0.00
2022-10-24T03:26:59.592Z,0.00
2022-10-24T03:27:59.574Z,0.00
2022-10-24T03:28:59.554Z,0.00
2022-10-24T03:29:59.558Z,0.00
2022-10-24T03:30:59.545Z,0.00
2022-10-24T03:31:59.533Z,0.00
2022-10-24T03:32:59.534Z,0.00
2022-10-24T03:33:59.508Z,0.00
2022-10-24T03:34:59.495Z,0.00
2022-10-24T03:35:59.494Z,0.00
2022-10-24T03:36:59.466Z,0.00
2022-10-24T03:37:59.462Z,0.00
2022-10-24T03:38:59.472Z,0.00
2022-10-24T03:39:59.454Z,0.00
2022-10-24T03:40:59.430Z,0.00
2022-10-24T03:41:59.412Z,0.00
2022-10-24T03:42:59.423Z,0.00
2022-10-24T03:43:59.415Z,0.00
2022-10-24T03:44:59.377Z,0.00
2022-10-24T03:45:59.375Z,0.00
2022-10-24T03:46:59.365Z,0.00
2022-10-24T03:47:59.344Z,0.00
2022-10-24T03:48:59.394Z,0.00
2022-10-24T03:49:59.359Z,0.00
2022-10-24T03:50:59.331Z,0.00
2022-10-24T03:51:59.310Z,0.00
2022-10-24T03:52:59.288Z,0.00
2022-10-24T03:53:59.284Z,0.00
2022-10-24T03:54:59.276Z,0.00
2022-10-24T03:55:59.294Z,0.00
2022-10-24T03:56:59.255Z,0.00
2022-10-24T03:57:59.237Z,0.00
2022-10-24T03:58:59.236Z,0.00
2022-10-24T03:59:59.211Z,0.00
2022-10-24T04:00:59.402Z,0.00
2022-10-24T04:01:59.289Z,0.00
2022-10-24T04:02:59.206Z,0.00
2022-10-24T04:03:59.170Z,0.00
2022-10-24T04:04:59.165Z,0.00
2022-10-24T04:05:59.151Z,0.00
2022-10-24T04:06:59.136Z,0.00
2022-10-24T04:07:59.141Z,0.00
2022-10-24T04:08:59.138Z,0.00
2022-10-24T04:09:59.099Z,0.00
2022-10-24T04:10:59.098Z,0.00
2022-10-24T04:11:59.119Z,0.00
2022-10-24T04:12:59.099Z,0.00
2022-10-24T04:13:59.103Z,0.00
2022-10-24T04:15:02.455Z,0.00
2022-10-24T04:16:00.039Z,0.00
2022-10-24T04:16:59.031Z,0.00
2022-10-24T04:17:59.047Z,0.00
2022-10-24T04:18:59.026Z,0.00
2022-10-24T04:19:58.999Z,0.00
2022-10-24T04:20:58.983Z,0.00
2022-10-24T04:21:58.980Z,0.00
2022-10-24T04:23:01.109Z,0.00
2022-10-24T04:23:58.961Z,0.00
2022-10-24T04:24:58.944Z,0.00
2022-10-24T04:25:58.977Z,0.00
2022-10-24T04:26:58.918Z,0.00
2022-10-24T04:27:58.925Z,0.00
2022-10-24T04:28:58.887Z,0.00
2022-10-24T04:29:58.894Z,0.00
2022-10-24T04:30:58.881Z,0.00
2022-10-24T04:31:58.874Z,0.00
2022-10-24T04:32:58.852Z,0.00
2022-10-24T04:33:58.840Z,0.00
2022-10-24T04:34:58.828Z,0.00
2022-10-24T04:35:58.830Z,0.00
2022-10-24T04:36:58.825Z,0.00
2022-10-24T04:37:58.796Z,0.00
2022-10-24T04:39:58.792Z,0.00
2022-10-24T04:40:58.757Z,0.00
2022-10-24T04:41:58.793Z,0.00
2022-10-24T04:42:58.767Z,0.00
2022-10-24T04:43:58.747Z,0.00
2022-10-24T04:44:58.725Z,0.00
2022-10-24T04:45:58.707Z,0.00
2022-10-24T04:46:58.699Z,0.00
2022-10-24T04:47:58.689Z,0.00
2022-10-24T04:48:58.671Z,0.00
2022-10-24T04:49:58.661Z,0.00
2022-10-24T04:50:58.678Z,0.00
2022-10-24T04:51:58.646Z,0.00
2022-10-24T04:52:58.634Z,0.00
2022-10-24T04:53:58.639Z,0.00
2022-10-24T04:54:58.615Z,0.00
2022-10-24T04:55:58.594Z,0.00
2022-10-24T04:56:58.588Z,0.00
2022-10-24T04:57:58.593Z,0.00
2022-10-24T04:58:58.577Z,0.00
2022-10-24T04:59:58.585Z,0.00
2022-10-24T05:00:58.697Z,0.00
2022-10-24T05:01:58.623Z,0.00
2022-10-24T05:02:59.203Z,0.00
2022-10-24T05:03:58.600Z,0.00
2022-10-24T05:04:58.511Z,0.00
2022-10-24T05:05:58.528Z,0.00
2022-10-24T05:06:58.494Z,0.00
2022-10-24T05:07:58.483Z,0.00
2022-10-24T05:08:58.461Z,0.00
2022-10-24T05:09:58.452Z,0.00
2022-10-24T05:10:58.464Z,0.00
2022-10-24T05:11:58.448Z,0.00
2022-10-24T05:12:58.433Z,0.00
2022-10-24T05:13:58.419Z,0.00
2022-10-24T05:14:58.389Z,0.00
2022-10-24T05:15:58.424Z,0.00
2022-10-24T05:16:58.391Z,0.00
2022-10-24T05:17:58.362Z,0.00
2022-10-24T05:18:58.360Z,0.00
2022-10-24T05:19:58.367Z,0.00
2022-10-24T05:20:58.339Z,0.00
2022-10-24T05:21:58.820Z,0.00
2022-10-24T05:22:58.317Z,0.00
2022-10-24T05:23:58.301Z,0.00
2022-10-24T05:24:58.312Z,0.00
2022-10-24T05:25:58.287Z,0.00
2022-10-24T05:26:58.257Z,0.00
2022-10-24T05:27:58.246Z,0.00
2022-10-24T05:28:58.285Z,0.00
2022-10-24T05:29:58.270Z,0.00
2022-10-24T05:30:58.257Z,0.00
2022-10-24T05:31:58.226Z,0.00
2022-10-24T05:32:58.205Z,0.00
2022-10-24T05:33:58.175Z,0.00
2022-10-24T05:34:58.180Z,0.00
2022-10-24T05:35:58.205Z,0.00
2022-10-24T05:36:58.152Z,0.00
2022-10-24T05:37:58.187Z,0.00
2022-10-24T05:38:58.183Z,0.00
2022-10-24T05:39:58.130Z,0.00
2022-10-24T05:40:58.115Z,0.00
2022-10-24T05:41:58.097Z,0.00
2022-10-24T05:42:58.086Z,0.00
2022-10-24T05:43:58.096Z,0.00
2022-10-24T05:44:58.093Z,0.00
2022-10-24T05:45:58.074Z,0.00
2022-10-24T05:46:58.035Z,0.00
2022-10-24T05:47:58.040Z,0.00
2022-10-24T05:48:58.059Z,0.00
2022-10-24T05:49:58.004Z,0.00
2022-10-24T05:50:58.012Z,0.00
2022-10-24T05:51:58.063Z,0.00
2022-10-24T05:52:58.010Z,0.00
2022-10-24T05:53:58.001Z,0.00
2022-10-24T05:55:06.833Z,0.00
2022-10-24T05:55:58.982Z,0.00
2022-10-24T05:56:57.928Z,0.00
2022-10-24T05:57:57.919Z,0.00
2022-10-24T05:58:58.007Z,0.00
2022-10-24T05:59:57.915Z,0.00
2022-10-24T06:00:57.882Z,0.00
2022-10-24T06:01:58.172Z,0.00
2022-10-24T06:02:57.859Z,0.00
2022-10-24T06:03:57.876Z,0.00
2022-10-24T06:04:57.845Z,0.00
2022-10-24T06:05:57.844Z,0.00
2022-10-24T06:06:57.812Z,0.00
2022-10-24T06:07:57.824Z,0.00
2022-10-24T06:08:57.883Z,0.00
2022-10-24T06:09:57.793Z,0.00
2022-10-24T06:10:57.843Z,0.00
2022-10-24T06:11:57.794Z,0.00
2022-10-24T06:12:57.814Z,0.00
2022-10-24T06:13:57.769Z,5.62
2022-10-24T06:14:57.759Z,5.62
2022-10-24T06:15:57.712Z,5.62
2022-10-24T06:16:57.729Z,5.62
2022-10-24T06:17:57.719Z,5.62
2022-10-24T06:18:57.700Z,5.62
2022-10-24T06:19:57.696Z,5.62
2022-10-24T06:20:57.659Z,5.62
2022-10-24T06:21:57.666Z,5.62
2022-10-24T06:22:57.647Z,11.25
2022-10-24T06:23:57.634Z,11.25
2022-10-24T06:24:57.613Z,11.25
2022-10-24T06:25:57.797Z,11.25
2022-10-24T06:26:57.616Z,11.25
2022-10-24T06:27:57.760Z,16.88
2022-10-24T06:28:57.599Z,16.88
2022-10-24T06:29:57.558Z,16.88
2022-10-24T06:30:57.611Z,16.88
2022-10-24T06:31:57.581Z,16.88
2022-10-24T06:32:57.551Z,22.50
2022-10-24T06:33:57.526Z,22.50
2022-10-24T06:34:57.513Z,22.50
2022-10-24T06:35:57.528Z,22.50
2022-10-24T06:36:58.282Z,22.50
2022-10-24T06:37:57.491Z,22.50
2022-10-24T06:38:57.463Z,22.50
2022-10-24T06:39:57.445Z,22.50
2022-10-24T06:40:57.458Z,22.50
2022-10-24T06:41:57.455Z,22.50
2022-10-24T06:42:57.451Z,28.12
2022-10-24T06:43:57.466Z,28.12
2022-10-24T06:44:57.455Z,28.12
2022-10-24T06:45:57.406Z,28.12
2022-10-24T06:46:57.811Z,28.12
2022-10-24T06:47:57.388Z,28.12
2022-10-24T06:48:57.353Z,28.12
2022-10-24T06:49:57.343Z,28.12
2022-10-24T06:50:57.332Z,28.12
2022-10-24T06:51:57.341Z,28.12
2022-10-24T06:52:57.315Z,33.75
2022-10-24T06:53:57.285Z,33.75
2022-10-24T06:54:57.318Z,33.75
2022-10-24T06:55:57.282Z,39.38
2022-10-24T06:56:57.285Z,39.38
2022-10-24T06:57:57.246Z,39.38
2022-10-24T06:58:57.279Z,45.00
2022-10-24T06:59:57.244Z,45.00
2022-10-24T07:00:57.301Z,45.00
2022-10-24T07:02:01.588Z,50.62
2022-10-24T07:02:58.201Z,50.62
2022-10-24T07:03:57.195Z,50.62
2022-10-24T07:04:57.178Z,56.25
2022-10-24T07:05:57.189Z,56.25
2022-10-24T07:06:57.168Z,56.25
2022-10-24T07:07:57.146Z,56.25
2022-10-24T07:08:57.131Z,56.25
2022-10-24T07:09:57.129Z,61.88
2022-10-24T07:10:57.200Z,61.88
2022-10-24T07:11:57.091Z,61.88
2022-10-24T07:12:57.104Z,61.88
2022-10-24T07:14:00.107Z,61.88
2022-10-24T07:14:57.072Z,61.88
2022-10-24T07:15:57.075Z,67.50
2022-10-24T07:16:57.041Z,67.50
2022-10-24T07:17:57.074Z,67.50
2022-10-24T07:18:57.194Z,67.50
2022-10-24T07:19:57.012Z,67.50
2022-10-24T07:20:57.005Z,67.50
2022-10-24T07:21:56.999Z,67.50
2022-10-24T07:22:57.014Z,73.12
2022-10-24T07:23:57.016Z,73.12
2022-10-24T07:24:56.980Z,73.12
2022-10-24T07:25:56.947Z,78.75
2022-10-24T07:26:56.914Z,78.75
2022-10-24T07:27:56.945Z,84.38
2022-10-24T07:28:57.008Z,84.38
2022-10-24T07:29:57.894Z,84.38
2022-10-24T07:30:56.908Z,84.38
2022-10-24T07:31:56.873Z,90.00
2022-10-24T07:32:56.853Z,90.00
2022-10-24T07:33:56.854Z,90.00
2022-10-24T07:34:56.838Z,90.00
2022-10-24T07:35:56.897Z,95.62
2022-10-24T07:36:56.810Z,95.62
2022-10-24T07:37:56.837Z,95.62
2022-10-24T07:38:56.810Z,95.62
2022-10-24T07:39:56.820Z,95.62
2022-10-24T07:40:56.764Z,95.62
2022-10-24T07:41:56.807Z,95.62
2022-10-24T07:42:56.769Z,101.25
2022-10-24T07:43:56.854Z,101.25
2022-10-24T07:44:56.734Z,101.25
2022-10-24T07:45:56.757Z,106.88
2022-10-24T07:46:56.744Z,106.88
2022-10-24T07:47:56.707Z,106.88
2022-10-24T07:48:56.696Z,106.88
2022-10-24T07:49:56.686Z,106.88
2022-10-24T07:50:56.821Z,106.88
2022-10-24T07:51:56.787Z,112.50
2022-10-24T07:52:56.668Z,112.50
2022-10-24T07:53:56.628Z,112.50
2022-10-24T07:54:56.635Z,112.50
2022-10-24T07:55:56.618Z,112.50
2022-10-24T07:56:56.583Z,118.12
2022-10-24T07:57:56.587Z,118.12
2022-10-24T07:58:56.585Z,118.12
2022-10-24T07:59:56.567Z,118.12
2022-10-24T08:00:56.584Z,118.12
2022-10-24T08:01:56.560Z,123.75
2022-10-24T08:02:56.636Z,123.75
2022-10-24T08:03:56.535Z,123.75
2022-10-24T08:04:56.511Z,123.75
2022-10-24T08:05:56.526Z,123.75
2022-10-24T08:06:56.520Z,123.75
2022-10-24T08:08:12.132Z,123.75
2022-10-24T08:08:57.488Z,123.75
2022-10-24T08:09:56.465Z,118.12
2022-10-24T08:10:56.521Z,118.12
2022-10-24T08:11:56.472Z,118.12
2022-10-24T08:12:56.441Z,118.12
2022-10-24T08:13:56.408Z,118.12
2022-10-24T08:14:56.404Z,118.12
2022-10-24T08:15:56.404Z,118.12
2022-10-24T08:16:56.387Z,123.75
2022-10-24T08:17:56.373Z,118.12
2022-10-24T08:18:56.346Z,123.75
2022-10-24T08:19:56.340Z,118.12
2022-10-24T08:20:56.443Z,118.12
2022-10-24T08:21:56.323Z,123.75
2022-10-24T08:22:56.310Z,118.12
2022-10-24T08:23:56.315Z,118.12
2022-10-24T08:24:56.284Z,118.12
2022-10-24T08:25:56.286Z,118.12
2022-10-24T08:26:56.292Z,123.75
2022-10-24T08:27:56.272Z,123.75
2022-10-24T08:28:56.264Z,129.38
2022-10-24T08:29:56.262Z,140.62
2022-10-24T08:30:56.262Z,146.25
2022-10-24T08:31:56.216Z,146.25
2022-10-24T08:32:56.195Z,151.88
2022-10-24T08:33:56.183Z,157.50
2022-10-24T08:34:56.206Z,163.12
2022-10-24T08:35:56.205Z,168.75
2022-10-24T08:36:56.793Z,163.12
2022-10-24T08:37:56.186Z,163.12
2022-10-24T08:38:57.791Z,163.12
2022-10-24T08:39:56.159Z,157.50
2022-10-24T08:40:56.121Z,151.88
2022-10-24T08:41:59.340Z,146.25
2022-10-24T08:42:56.082Z,140.62
2022-10-24T08:43:56.096Z,140.62
2022-10-24T08:44:56.138Z,135.00
2022-10-24T08:45:56.133Z,135.00
2022-10-24T08:46:56.052Z,135.00
2022-10-24T08:47:56.024Z,140.62
2022-10-24T08:48:56.805Z,140.62
2022-10-24T08:49:56.042Z,140.62
2022-10-24T08:50:56.024Z,140.62
2022-10-24T08:51:56.057Z,140.62
2022-10-24T08:52:56.018Z,140.62
2022-10-24T08:53:55.972Z,146.25
2022-10-24T08:54:55.973Z,140.62
2022-10-24T08:55:55.954Z,140.62
2022-10-24T08:56:55.925Z,140.62
2022-10-24T08:57:55.925Z,135.00
2022-10-24T08:58:55.910Z,129.38
2022-10-24T08:59:55.910Z,123.75
2022-10-24T09:00:56.043Z,129.38
2022-10-24T09:01:59.288Z,135.00
2022-10-24T09:02:56.996Z,135.00
2022-10-24T09:03:57.337Z,135.00
2022-10-24T09:04:55.841Z,140.62
2022-10-24T09:05:55.841Z,140.62
2022-10-24T09:06:55.833Z,151.88
2022-10-24T09:07:55.799Z,151.88
2022-10-24T09:08:55.800Z,157.50
2022-10-24T09:09:55.796Z,157.50
2022-10-24T09:10:55.768Z,180.00
2022-10-24T09:11:55.895Z,185.62
2022-10-24T09:12:55.767Z,191.25
2022-10-24T09:13:56.342Z,185.62
2022-10-24T09:14:55.731Z,191.25
2022-10-24T09:15:55.733Z,191.25
2022-10-24T09:16:55.744Z,191.25
2022-10-24T09:17:55.740Z,191.25
2022-10-24T09:18:55.715Z,168.75
2022-10-24T09:19:55.673Z,168.75
2022-10-24T09:20:55.649Z,163.12
2022-10-24T09:21:55.697Z,163.12
2022-10-24T09:22:55.657Z,174.38
2022-10-24T09:23:56.348Z,180.00
2022-10-24T09:24:55.623Z,185.62
2022-10-24T09:25:55.617Z,180.00
2022-10-24T09:26:55.611Z,157.50
2022-10-24T09:27:55.721Z,163.12
2022-10-24T09:28:56.307Z,174.38
2022-10-24T09:29:55.566Z,180.00
2022-10-24T09:30:55.554Z,180.00
2022-10-24T09:31:55.559Z,191.25
2022-10-24T09:32:55.556Z,185.62
2022-10-24T09:33:55.524Z,180.00
2022-10-24T09:34:55.526Z,180.00
2022-10-24T09:35:55.497Z,180.00
2022-10-24T09:36:55.515Z,168.75
2022-10-24T09:37:55.492Z,168.75
2022-10-24T09:38:55.469Z,191.25
2022-10-24T09:39:55.455Z,168.75
2022-10-24T09:40:55.443Z,180.00
2022-10-24T09:41:55.472Z,163.12
2022-10-24T09:42:55.449Z,168.75
2022-10-24T09:43:55.615Z,168.75
2022-10-24T09:44:55.392Z,168.75
2022-10-24T09:45:55.475Z,168.75
2022-10-24T09:46:55.407Z,168.75
2022-10-24T09:47:55.410Z,174.38
2022-10-24T09:48:55.362Z,163.12
2022-10-24T09:49:55.352Z,157.50
2022-10-24T09:50:55.345Z,157.50
2022-10-24T09:51:55.337Z,163.12
2022-10-24T09:52:55.316Z,163.12
2022-10-24T09:53:55.316Z,168.75
2022-10-24T09:54:55.290Z,174.38
2022-10-24T09:55:55.286Z,174.38
2022-10-24T09:56:55.416Z,168.75
2022-10-24T09:57:55.490Z,163.12
2022-10-24T09:58:55.237Z,157.50
2022-10-24T09:59:55.231Z,163.12
2022-10-24T10:00:55.256Z,168.75
2022-10-24T10:01:55.372Z,168.75
2022-10-24T10:02:55.196Z,180.00
2022-10-24T10:03:55.226Z,185.62
2022-10-24T10:04:55.212Z,191.25
2022-10-24T10:05:55.176Z,185.62
2022-10-24T10:06:55.287Z,185.62
2022-10-24T10:07:55.247Z,185.62
2022-10-24T10:08:55.136Z,202.50
2022-10-24T10:09:56.727Z,185.62
2022-10-24T10:10:55.139Z,174.38
2022-10-24T10:12:02.429Z,157.50
2022-10-24T10:12:56.111Z,163.12
2022-10-24T10:13:55.070Z,180.00
2022-10-24T10:14:55.110Z,180.00
2022-10-24T10:15:55.075Z,180.00
2022-10-24T10:17:55.039Z,174.38
2022-10-24T10:18:55.117Z,151.88
2022-10-24T10:19:55.020Z,157.50
2022-10-24T10:20:55.023Z,157.50
2022-10-24T10:21:55.021Z,168.75
2022-10-24T10:22:54.992Z,185.62
2022-10-24T10:23:54.992Z,180.00
2022-10-24T10:24:54.971Z,168.75
2022-10-24T10:25:54.964Z,168.75
2022-10-24T10:26:55.806Z,151.88
2022-10-24T10:27:54.922Z,174.38
2022-10-24T10:28:54.960Z,180.00
2022-10-24T10:29:54.923Z,185.62
2022-10-24T10:30:54.906Z,168.75
2022-10-24T10:31:55.848Z,174.38
2022-10-24T10:32:54.919Z,185.62
2022-10-24T10:33:54.862Z,196.88
2022-10-24T10:34:54.867Z,191.25
2022-10-24T10:35:54.960Z,191.25
2022-10-24T10:36:54.838Z,185.62
2022-10-24T10:37:54.809Z,185.62
2022-10-24T10:38:54.841Z,202.50
2022-10-24T10:39:54.957Z,196.88
2022-10-24T10:40:54.806Z,219.38
2022-10-24T10:42:54.773Z,230.62
2022-10-24T10:43:54.780Z,236.25
2022-10-24T10:44:54.763Z,241.88
2022-10-24T10:45:54.777Z,225.00
2022-10-24T10:46:54.715Z,219.38
2022-10-24T10:47:54.720Z,230.62
2022-10-24T10:48:54.751Z,247.50
2022-10-24T10:49:54.773Z,219.38
2022-10-24T10:50:54.861Z,219.38
2022-10-24T10:51:54.675Z,213.75
2022-10-24T10:52:54.704Z,225.00
2022-10-24T10:53:54.658Z,236.25
2022-10-24T10:54:54.657Z,236.25
2022-10-24T10:55:54.624Z,219.38
2022-10-24T10:56:54.595Z,241.88
2022-10-24T10:57:54.597Z,253.12
2022-10-24T10:58:54.829Z,236.25
2022-10-24T10:59:54.600Z,230.62
2022-10-24T11:00:54.599Z,236.25
2022-10-24T11:01:54.701Z,241.88
2022-10-24T11:02:55.390Z,236.25
2022-10-24T11:03:54.539Z,236.25
2022-10-24T11:04:54.539Z,236.25
2022-10-24T11:05:54.501Z,253.12
2022-10-24T11:06:54.563Z,264.38
2022-10-24T11:07:54.576Z,247.50
2022-10-24T11:08:54.485Z,270.00
2022-10-24T11:09:54.471Z,236.25
2022-10-24T11:10:54.475Z,247.50
2022-10-24T11:11:54.442Z,225.00
2022-10-24T11:12:54.449Z,247.50
2022-10-24T11:13:54.416Z,264.38
2022-10-24T11:14:54.443Z,241.88
2022-10-24T11:15:54.415Z,253.12
2022-10-24T11:16:54.415Z,230.62
2022-10-24T11:17:54.450Z,241.88
2022-10-24T11:18:54.392Z,236.25
2022-10-24T11:19:54.489Z,208.12
2022-10-24T11:20:54.356Z,202.50
2022-10-24T11:21:54.351Z,225.00
2022-10-24T11:22:54.324Z,213.75
2022-10-24T11:23:54.343Z,219.38
2022-10-24T11:24:54.322Z,219.38
2022-10-24T11:25:54.336Z,213.75
2022-10-24T11:26:54.299Z,213.75
2022-10-24T11:27:54.276Z,236.25
2022-10-24T11:28:54.269Z,241.88
2022-10-24T11:29:54.267Z,241.88
2022-10-24T11:30:54.266Z,241.88
2022-10-24T11:31:54.285Z,219.38
2022-10-24T11:32:54.207Z,219.38
2022-10-24T11:33:54.271Z,208.12
2022-10-24T11:34:54.206Z,202.50
2022-10-24T11:35:54.209Z,196.88
2022-10-24T11:36:55.939Z,191.25
2022-10-24T11:37:54.192Z,185.62
2022-10-24T11:38:54.150Z,185.62
2022-10-24T11:39:54.162Z,185.62
2022-10-24T11:40:57.831Z,191.25
2022-10-24T11:41:55.140Z,202.50
2022-10-24T11:42:54.109Z,213.75
2022-10-24T11:43:54.117Z,202.50
2022-10-24T11:44:54.081Z,202.50
2022-10-24T11:45:54.092Z,213.75
2022-10-24T11:46:54.057Z,213.75
2022-10-24T11:47:54.049Z,196.88
2022-10-24T11:48:54.062Z,185.62
2022-10-24T11:49:54.024Z,191.25
2022-10-24T11:50:54.043Z,202.50
2022-10-24T11:51:54.012Z,219.38
2022-10-24T11:52:53.999Z,236.25
2022-10-24T11:53:53.998Z,247.50
2022-10-24T11:54:53.997Z,258.75
2022-10-24T11:55:54.017Z,264.38
2022-10-24T11:56:53.968Z,286.88
2022-10-24T11:57:53.937Z,303.75
2022-10-24T11:58:53.939Z,315.00
2022-10-24T11:59:53.941Z,270.00
2022-10-24T12:00:53.928Z,258.75
2022-10-24T12:01:53.907Z,264.38
2022-10-24T12:02:54.034Z,292.50
2022-10-24T12:03:53.876Z,298.12
2022-10-24T12:04:53.886Z,286.88
2022-10-24T12:05:53.842Z,247.50
2022-10-24T12:06:53.849Z,225.00
2022-10-24T12:07:53.853Z,236.25
2022-10-24T12:08:53.813Z,264.38
2022-10-24T12:09:53.818Z,236.25
2022-10-24T12:10:53.791Z,202.50
2022-10-24T12:11:53.807Z,185.62
2022-10-24T12:12:53.890Z,180.00
2022-10-24T12:13:53.865Z,185.62
2022-10-24T12:14:53.786Z,213.75
2022-10-24T12:15:53.752Z,208.12
2022-10-24T12:16:53.726Z,196.88
2022-10-24T12:17:53.724Z,180.00
2022-10-24T12:18:53.750Z,185.62
2022-10-24T12:19:53.720Z,196.88
2022-10-24T12:20:53.696Z,230.62
2022-10-24T12:21:53.687Z,219.38
2022-10-24T12:22:53.698Z,213.75
2022-10-24T12:23:53.673Z,225.00
2022-10-24T12:24:53.639Z,258.75
2022-10-24T12:25:53.639Z,247.50
2022-10-24T12:26:53.883Z,219.38
2022-10-24T12:27:53.637Z,213.75
2022-10-24T12:28:53.606Z,185.62
2022-10-24T12:29:53.575Z,163.12
2022-10-24T12:31:53.573Z,151.88
2022-10-24T12:32:53.548Z,168.75
2022-10-24T12:33:53.582Z,191.25
2022-10-24T12:34:58.351Z,241.88
2022-10-24T12:35:54.628Z,225.00
2022-10-24T12:36:53.509Z,270.00
2022-10-24T12:37:53.488Z,253.12
2022-10-24T12:38:53.530Z,247.50
2022-10-24T12:39:57.623Z,309.38
2022-10-24T12:40:53.485Z,275.62
2022-10-24T12:41:53.465Z,253.12
2022-10-24T12:42:53.465Z,275.62
2022-10-24T12:43:53.455Z,286.88
2022-10-24T12:44:53.418Z,286.88
2022-10-24T12:45:53.463Z,275.62
2022-10-24T12:46:53.406Z,292.50
2022-10-24T12:47:53.414Z,309.38
2022-10-24T12:48:53.368Z,331.88
2022-10-24T12:49:53.357Z,331.88
2022-10-24T12:50:53.372Z,309.38
2022-10-24T12:51:53.394Z,298.12
2022-10-24T12:52:54.318Z,270.00
2022-10-24T12:53:53.323Z,275.62
2022-10-24T12:54:53.303Z,219.38
2022-10-24T12:55:53.310Z,213.75
2022-10-24T12:56:53.279Z,208.12
2022-10-24T12:57:53.291Z,202.50
2022-10-24T12:58:53.266Z,196.88